KTAD/TAD METAR and TAF weather

Enter ICAO airport designator
Station Type Date Time Source
KTAD METAR 2021/09/16 21:54 UTC NOAA

KTAD 162154Z AUTO VRB05KT 10SM CLR 33/M01 A2991 RMK AO2 SLP033 T03281011


Station Type Date Time Source
KTAD Decoded METAR 2021/09/16 21:54 UTC NOAA

Trinidad, Perry Stokes Airport, CO, United States (KTAD) 37-16N 104-26W
Sep 16, 2021 - 05:54 PM EDT / 2021.09.16 2154 UTC
Wind: Variable at 6 MPH (5 KT):0
Visibility: 10 mile(s):0
Sky conditions: clear
Temperature: 91.0 F (32.8 C)
Dew Point: 30.0 F (-1.1 C)
Relative Humidity: 11%
Pressure (altimeter): 29.91 in. Hg (1012 hPa)
ob: KTAD 162154Z AUTO VRB05KT 10SM CLR 33/M01 A2991 RMK AO2 SLP033 T03281011
cycle: 22

Station Type Date Time Source
KTAD TAF UTC NOAA

Error!

Example: see airport list